createdAt,value
2022-08-17T00:00:16.582Z,5.30
2022-08-17T00:03:23.053Z,5.00
2022-08-17T00:05:56.704Z,4.70
2022-08-17T00:08:35.313Z,4.40
2022-08-17T00:11:07.256Z,4.40
2022-08-17T00:13:39.905Z,4.30
2022-08-17T00:16:12.067Z,4.40
2022-08-17T00:19:01.245Z,4.30
2022-08-17T00:22:28.698Z,4.20
2022-08-17T00:24:18.694Z,4.70
2022-08-17T00:26:47.164Z,4.00
2022-08-17T00:29:20.016Z,4.10
2022-08-17T00:31:49.438Z,4.10
2022-08-17T00:34:17.974Z,4.10
2022-08-17T00:36:45.823Z,4.00
2022-08-17T00:39:13.806Z,3.70
2022-08-17T00:41:42.160Z,3.50
2022-08-17T00:44:12.224Z,3.60
2022-08-17T00:46:43.879Z,3.80
2022-08-17T00:49:13.206Z,3.60
2022-08-17T00:51:50.372Z,3.70
2022-08-17T00:54:24.897Z,3.90
2022-08-17T00:56:56.765Z,4.10
2022-08-17T00:59:27.928Z,4.20
2022-08-17T01:01:55.815Z,4.70
2022-08-17T01:04:26.463Z,3.80
2022-08-17T01:06:55.962Z,4.00
2022-08-17T01:09:24.113Z,4.30
2022-08-17T01:11:52.417Z,4.60
2022-08-17T01:14:22.313Z,4.60
2022-08-17T01:16:54.080Z,4.40
2022-08-17T01:19:26.177Z,4.60
2022-08-17T01:22:03.176Z,3.70
2022-08-17T01:24:31.248Z,4.00
2022-08-17T01:27:03.970Z,4.40
2022-08-17T01:29:41.276Z,4.10
2022-08-17T01:32:10.493Z,4.30
2022-08-17T01:34:42.775Z,4.80
2022-08-17T01:37:14.383Z,4.40
2022-08-17T01:39:51.995Z,4.70
2022-08-17T01:42:29.701Z,4.50
2022-08-17T01:45:05.273Z,4.40
2022-08-17T01:47:45.366Z,4.50
2022-08-17T01:50:17.820Z,4.60
2022-08-17T01:52:47.796Z,4.00
2022-08-17T01:55:21.530Z,3.50
2022-08-17T01:57:51.347Z,3.90
2022-08-17T02:00:19.426Z,3.70
2022-08-17T02:02:47.622Z,4.00
2022-08-17T02:05:16.566Z,3.60
2022-08-17T02:08:20.113Z,3.70
2022-08-17T02:11:39.645Z,4.10
2022-08-17T02:22:21.044Z,4.90
2022-08-17T02:25:27.645Z,4.80
2022-08-17T02:35:10.629Z,5.00
2022-08-17T02:38:33.035Z,5.20
2022-08-17T02:41:40.646Z,4.40
2022-08-17T02:45:12.520Z,4.00
2022-08-17T02:48:50.254Z,4.50
2022-08-17T02:52:07.628Z,4.00
2022-08-17T02:55:19.649Z,4.10
2022-08-17T02:58:50.724Z,4.40
2022-08-17T03:01:50.680Z,4.30
2022-08-17T03:05:37.715Z,4.00
2022-08-17T03:08:43.640Z,3.90
2022-08-17T03:16:25.669Z,4.10
2022-08-17T03:19:43.142Z,4.60
2022-08-17T03:23:02.776Z,4.40
2022-08-17T03:29:03.104Z,4.60
2022-08-17T03:32:22.159Z,4.60
2022-08-17T03:35:22.589Z,4.00
2022-08-17T03:38:25.699Z,4.60
2022-08-17T03:41:28.047Z,4.70
2022-08-17T03:44:57.787Z,6.20
2022-08-17T03:48:45.211Z,5.50
2022-08-17T03:51:58.466Z,4.70
2022-08-17T03:55:10.349Z,5.10
2022-08-17T03:58:40.642Z,4.90
2022-08-17T04:02:24.417Z,5.10
2022-08-17T04:05:27.625Z,5.10
2022-08-17T04:08:53.141Z,4.60
2022-08-17T04:11:57.710Z,4.40
2022-08-17T04:15:02.856Z,4.30
2022-08-17T04:18:03.089Z,4.20
2022-08-17T04:21:19.696Z,4.20
2022-08-17T04:24:18.165Z,4.30
2022-08-17T04:27:08.048Z,4.00
2022-08-17T04:30:06.229Z,3.80
2022-08-17T04:33:16.967Z,4.50
2022-08-17T04:36:28.659Z,5.10
2022-08-17T04:39:39.807Z,4.80
2022-08-17T04:46:19.901Z,5.50
2022-08-17T04:49:33.670Z,5.90
2022-08-17T04:52:43.724Z,5.30
2022-08-17T04:55:53.641Z,5.60
2022-08-17T04:58:47.727Z,5.40
2022-08-17T05:01:56.650Z,5.00
2022-08-17T05:04:58.081Z,5.30
2022-08-17T05:07:54.685Z,4.50
2022-08-17T05:11:04.674Z,4.60
2022-08-17T05:14:13.651Z,4.90
2022-08-17T05:20:23.901Z,5.60
2022-08-17T05:23:15.709Z,4.90
2022-08-17T05:26:26.634Z,5.10
2022-08-17T05:29:19.656Z,4.50
2022-08-17T05:32:38.256Z,4.80
2022-08-17T05:35:42.755Z,4.60
2022-08-17T05:39:15.813Z,4.40
2022-08-17T05:42:22.691Z,4.90
2022-08-17T05:45:55.104Z,4.20
2022-08-17T05:49:13.704Z,4.90
2022-08-17T05:55:37.723Z,4.90
2022-08-17T05:58:45.584Z,4.70
2022-08-17T06:01:57.672Z,4.80
2022-08-17T06:05:17.527Z,4.70
2022-08-17T06:11:58.747Z,5.20
2022-08-17T06:15:11.762Z,5.40
2022-08-17T06:18:28.864Z,5.10
2022-08-17T06:21:52.624Z,4.80
2022-08-17T06:25:10.213Z,5.20
2022-08-17T06:28:26.702Z,5.30
2022-08-17T06:31:39.746Z,4.80
2022-08-17T06:38:40.654Z,4.50
2022-08-17T06:48:35.702Z,4.30
2022-08-17T06:51:58.704Z,4.80
2022-08-17T06:55:01.639Z,4.00
2022-08-17T06:58:29.784Z,4.50
2022-08-17T07:01:15.294Z,4.40
2022-08-17T07:04:13.220Z,4.40
2022-08-17T07:06:57.172Z,4.20
2022-08-17T07:09:34.113Z,3.60
2022-08-17T07:12:22.106Z,4.00
2022-08-17T07:15:08.033Z,3.90
2022-08-17T07:17:47.869Z,3.80
2022-08-17T07:20:22.416Z,4.00
2022-08-17T07:23:06.649Z,4.60
2022-08-17T07:25:47.244Z,4.30
2022-08-17T07:28:41.465Z,4.20
2022-08-17T07:31:14.069Z,4.50
2022-08-17T07:34:00.890Z,3.80
2022-08-17T07:36:34.998Z,4.40
2022-08-17T07:39:04.267Z,4.50
2022-08-17T07:41:57.840Z,3.90
2022-08-17T07:44:46.997Z,4.40
2022-08-17T07:47:32.206Z,4.50
2022-08-17T07:50:29.832Z,4.80
2022-08-17T07:53:38.057Z,4.40
2022-08-17T07:56:06.279Z,4.60
2022-08-17T07:58:34.279Z,4.20
2022-08-17T08:01:10.397Z,4.00
2022-08-17T08:03:43.888Z,3.90
2022-08-17T08:06:24.805Z,3.60
2022-08-17T08:09:03.849Z,3.50
2022-08-17T08:11:35.775Z,4.00
2022-08-17T08:14:22.757Z,3.70
2022-08-17T08:17:04.228Z,3.70
2022-08-17T08:19:34.602Z,4.10
2022-08-17T08:22:12.066Z,3.90
2022-08-17T08:24:54.436Z,4.30
2022-08-17T08:27:39.308Z,3.70
2022-08-17T08:30:15.659Z,3.70
2022-08-17T08:33:17.520Z,3.70
2022-08-17T08:35:55.892Z,3.80
2022-08-17T08:38:38.603Z,3.90
2022-08-17T08:41:19.354Z,3.70
2022-08-17T08:44:59.769Z,4.00
2022-08-17T08:47:56.418Z,3.90
2022-08-17T08:54:34.654Z,4.40
2022-08-17T08:57:25.427Z,4.60
2022-08-17T09:00:16.862Z,5.20
2022-08-17T09:03:20.096Z,5.00
2022-08-17T09:06:32.243Z,4.80
2022-08-17T09:09:34.431Z,5.10
2022-08-17T09:12:26.074Z,5.90
2022-08-17T09:15:14.963Z,5.70
2022-08-17T09:19:00.248Z,5.20
2022-08-17T09:22:12.204Z,5.40
2022-08-17T09:25:45.191Z,5.50
2022-08-17T09:29:17.108Z,5.60
2022-08-17T09:32:27.813Z,6.20
2022-08-17T09:35:42.756Z,5.60
2022-08-17T09:38:56.151Z,5.70
2022-08-17T09:41:49.477Z,5.90
2022-08-17T09:45:17.769Z,5.90
2022-08-17T09:49:04.980Z,5.90
2022-08-17T09:52:14.872Z,5.90
2022-08-17T09:55:02.055Z,6.60
2022-08-17T09:57:53.403Z,5.80
2022-08-17T10:00:29.440Z,6.20
2022-08-17T10:03:16.430Z,5.50
2022-08-17T10:05:57.093Z,5.70
2022-08-17T10:08:47.716Z,5.40
2022-08-17T10:12:07.154Z,6.30
2022-08-17T10:15:09.473Z,5.90
2022-08-17T10:18:10.667Z,5.60
2022-08-17T10:20:53.720Z,5.80
2022-08-17T10:23:40.727Z,6.10
2022-08-17T10:26:55.419Z,5.90
2022-08-17T10:29:48.910Z,5.60
2022-08-17T10:32:49.564Z,5.00
2022-08-17T10:35:44.430Z,5.20
2022-08-17T10:38:48.830Z,5.60
2022-08-17T10:41:46.054Z,6.20
2022-08-17T10:50:16.185Z,4.90
2022-08-17T10:51:05.845Z,4.70
2022-08-17T10:52:07.530Z,4.60
2022-08-17T10:54:40.811Z,4.60
2022-08-17T10:57:37.167Z,4.90
2022-08-17T11:02:14.040Z,5.00
2022-08-17T11:04:42.437Z,5.00
2022-08-17T11:07:49.230Z,4.60
2022-08-17T11:10:45.520Z,4.40
2022-08-17T11:13:45.044Z,4.20
2022-08-17T11:16:54.460Z,4.80
2022-08-17T11:20:21.932Z,4.40
2022-08-17T11:24:39.435Z,4.80
2022-08-17T11:28:52.847Z,4.80
2022-08-17T11:31:42.565Z,5.30
2022-08-17T11:34:27.883Z,4.60
2022-08-17T11:37:43.733Z,4.50
2022-08-17T11:40:35.211Z,4.40
2022-08-17T11:43:25.319Z,4.50
2022-08-17T11:46:07.492Z,4.70
2022-08-17T11:49:15.230Z,4.20
2022-08-17T11:52:11.807Z,4.50
2022-08-17T12:05:45.506Z,4.60
2022-08-17T12:12:45.499Z,5.10
2022-08-17T12:15:55.785Z,4.50
2022-08-17T12:22:33.574Z,3.90
2022-08-17T12:25:16.119Z,4.30
2022-08-17T12:28:06.913Z,3.80
2022-08-17T12:31:15.256Z,4.30
2022-08-17T12:34:00.464Z,5.10
2022-08-17T12:36:32.787Z,3.80
2022-08-17T12:39:56.679Z,4.20
2022-08-17T12:43:23.967Z,4.00
2022-08-17T12:46:44.366Z,4.00
2022-08-17T12:53:33.869Z,4.40
2022-08-17T12:56:13.474Z,4.40
2022-08-17T12:59:08.976Z,3.70
2022-08-17T13:05:05.989Z,3.60
2022-08-17T13:08:04.921Z,3.60
2022-08-17T13:14:19.757Z,4.30
2022-08-17T13:14:30.387Z,3.80
2022-08-17T13:17:50.547Z,3.50
2022-08-17T13:20:29.486Z,4.20
2022-08-17T13:23:12.623Z,4.30
2022-08-17T13:25:41.988Z,4.30
2022-08-17T13:28:35.580Z,3.70
2022-08-17T13:31:52.764Z,3.60
2022-08-17T13:35:43.475Z,4.20
2022-08-17T13:39:43.425Z,4.00
2022-08-17T13:46:50.531Z,4.00
2022-08-17T13:49:41.853Z,4.20
2022-08-17T13:53:01.505Z,4.10
2022-08-17T13:56:03.283Z,4.50
2022-08-17T13:59:01.215Z,4.60
2022-08-17T14:02:13.290Z,4.10
2022-08-17T14:05:12.765Z,4.30
2022-08-17T14:08:07.514Z,4.00
2022-08-17T14:11:33.332Z,5.20
2022-08-17T14:14:07.810Z,4.30
2022-08-17T14:16:41.852Z,4.10
2022-08-17T14:19:49.220Z,4.50
2022-08-17T14:22:39.403Z,4.10
2022-08-17T14:25:30.713Z,4.50
2022-08-17T14:28:15.004Z,4.20
2022-08-17T14:31:41.083Z,4.30
2022-08-17T14:34:45.322Z,4.50
2022-08-17T14:37:21.037Z,4.40
2022-08-17T14:39:56.008Z,4.80
2022-08-17T14:42:36.264Z,4.50
2022-08-17T14:45:29.607Z,4.90
2022-08-17T14:48:28.826Z,5.00
2022-08-17T14:53:34.123Z,5.50
2022-08-17T14:54:56.068Z,6.20
2022-08-17T14:57:39.628Z,6.00
2022-08-17T15:00:21.001Z,5.60
2022-08-17T15:02:56.493Z,5.40
2022-08-17T15:05:48.609Z,6.30
2022-08-17T15:08:28.374Z,6.10
2022-08-17T15:11:01.280Z,5.70
2022-08-17T15:13:52.372Z,5.80
2022-08-17T15:16:36.342Z,6.20
2022-08-17T15:19:09.914Z,6.00
2022-08-17T15:22:07.106Z,6.20
2022-08-17T15:24:38.708Z,6.10
2022-08-17T15:27:37.238Z,6.20
2022-08-17T15:30:26.546Z,5.50
2022-08-17T15:32:58.932Z,5.80
2022-08-17T15:35:43.999Z,5.90
2022-08-17T15:38:41.947Z,5.80
2022-08-17T15:41:19.892Z,6.20
2022-08-17T15:43:54.812Z,5.80
2022-08-17T15:46:27.057Z,4.40
2022-08-17T15:49:00.173Z,5.40
2022-08-17T15:51:31.813Z,6.00
2022-08-17T15:54:19.325Z,6.10
2022-08-17T15:56:53.741Z,6.00
2022-08-17T15:59:21.630Z,6.30
2022-08-17T16:03:13.202Z,6.60
2022-08-17T16:04:40.805Z,7.20
2022-08-17T16:07:12.459Z,6.80
2022-08-17T16:09:40.790Z,7.00
2022-08-17T16:12:19.464Z,5.50
2022-08-17T16:14:57.935Z,5.30
2022-08-17T16:17:40.150Z,5.10
2022-08-17T16:20:20.832Z,5.00
2022-08-17T16:27:02.813Z,4.40
2022-08-17T16:29:47.878Z,4.10
2022-08-17T16:32:59.553Z,4.10
2022-08-17T16:35:42.853Z,4.20
2022-08-17T16:38:12.426Z,4.00
2022-08-17T16:40:45.501Z,4.10
2022-08-17T16:43:14.128Z,4.10
2022-08-17T16:45:42.848Z,4.40
2022-08-17T16:48:21.965Z,4.80
2022-08-17T16:51:03.278Z,4.10
2022-08-17T16:53:32.502Z,3.70
2022-08-17T16:56:00.520Z,4.20
2022-08-17T16:58:31.458Z,4.80
2022-08-17T17:01:03.156Z,4.80
2022-08-17T17:03:54.127Z,5.20
2022-08-17T17:07:12.064Z,4.90
2022-08-17T17:09:43.893Z,5.10
2022-08-17T17:13:03.014Z,4.90
2022-08-17T17:15:47.833Z,4.60
2022-08-17T17:18:40.193Z,4.60
2022-08-17T17:21:49.802Z,4.60
2022-08-17T17:24:37.709Z,5.10
2022-08-17T17:27:16.267Z,5.40
2022-08-17T17:30:13.337Z,5.20
2022-08-17T17:32:52.671Z,5.10
2022-08-17T17:35:47.096Z,5.10
2022-08-17T17:38:22.380Z,5.20
2022-08-17T17:40:55.131Z,6.40
2022-08-17T17:43:40.187Z,5.30
2022-08-17T17:46:27.560Z,6.00
2022-08-17T17:48:58.278Z,5.40
2022-08-17T17:52:08.501Z,6.10
2022-08-17T17:54:56.749Z,5.70
2022-08-17T17:58:00.751Z,5.50
2022-08-17T18:00:49.522Z,5.70
2022-08-17T18:03:50.436Z,5.50
2022-08-17T18:06:32.935Z,5.00
2022-08-17T18:09:33.967Z,5.90
2022-08-17T18:12:19.062Z,5.50
2022-08-17T18:15:10.538Z,5.70
2022-08-17T18:17:38.730Z,6.30
2022-08-17T18:20:07.099Z,5.90
2022-08-17T18:22:35.045Z,5.90
2022-08-17T18:25:38.070Z,6.30
2022-08-17T18:28:09.107Z,5.70
2022-08-17T18:30:37.177Z,6.10
2022-08-17T18:33:26.586Z,6.50
2022-08-17T18:35:58.899Z,6.70
2022-08-17T18:38:34.304Z,6.90
2022-08-17T18:41:24.325Z,7.10
2022-08-17T18:44:04.027Z,7.20
2022-08-17T18:46:37.797Z,6.60
2022-08-17T18:49:25.824Z,7.10
2022-08-17T18:52:26.195Z,6.90
2022-08-17T18:55:21.561Z,6.80
2022-08-17T18:57:53.488Z,6.30
2022-08-17T19:00:40.541Z,6.70
2022-08-17T19:03:24.251Z,6.70
2022-08-17T19:05:55.670Z,6.40
2022-08-17T19:08:35.951Z,7.10
2022-08-17T19:11:11.611Z,7.10
2022-08-17T19:13:45.901Z,6.20
2022-08-17T19:16:28.120Z,6.80
2022-08-17T19:19:01.778Z,7.00
2022-08-17T19:21:36.506Z,6.10
2022-08-17T19:24:22.940Z,6.40
2022-08-17T19:27:14.055Z,6.50
2022-08-17T19:30:05.500Z,6.00
2022-08-17T19:32:36.475Z,5.90
2022-08-17T19:35:07.213Z,6.90
2022-08-17T19:37:45.766Z,5.90
2022-08-17T19:40:55.079Z,6.90
2022-08-17T19:43:49.471Z,6.30
2022-08-17T19:46:35.559Z,6.10
2022-08-17T19:49:34.498Z,7.00
2022-08-17T19:52:40.952Z,6.70
2022-08-17T19:55:24.879Z,7.50
2022-08-17T19:58:18.904Z,7.10
2022-08-17T20:00:51.694Z,6.70
2022-08-17T20:03:27.605Z,7.20
2022-08-17T20:06:12.692Z,6.40
2022-08-17T20:08:58.439Z,7.00
2022-08-17T20:11:34.162Z,7.00
2022-08-17T20:14:09.858Z,6.10
2022-08-17T20:16:37.877Z,7.30
2022-08-17T20:19:20.883Z,7.10
2022-08-17T20:21:56.554Z,6.90
2022-08-17T20:24:37.912Z,7.10
2022-08-17T20:27:16.458Z,6.30
2022-08-17T20:30:04.015Z,6.20
2022-08-17T20:32:56.105Z,6.50
2022-08-17T20:35:30.195Z,6.20
2022-08-17T20:38:02.315Z,7.10
2022-08-17T20:40:36.538Z,6.60
2022-08-17T20:43:42.906Z,6.90
2022-08-17T20:46:26.708Z,7.20
2022-08-17T20:49:14.706Z,7.20
2022-08-17T20:52:01.209Z,7.20
2022-08-17T20:54:51.865Z,7.30
2022-08-17T20:57:43.869Z,7.80
2022-08-17T21:00:42.641Z,7.60
2022-08-17T21:03:51.192Z,7.50
2022-08-17T21:06:22.245Z,7.80
2022-08-17T21:09:19.176Z,7.70
2022-08-17T21:12:05.345Z,7.90
2022-08-17T21:14:58.992Z,7.20
2022-08-17T21:17:43.047Z,7.20
2022-08-17T21:20:32.691Z,6.60
2022-08-17T21:23:20.466Z,7.50
2022-08-17T21:26:30.458Z,7.40
2022-08-17T21:29:30.084Z,6.40
2022-08-17T21:32:27.992Z,6.50
2022-08-17T21:35:25.772Z,7.10
2022-08-17T21:38:02.342Z,6.80
2022-08-17T21:40:33.227Z,7.00
2022-08-17T21:43:17.752Z,6.80
2022-08-17T21:45:55.768Z,7.30
2022-08-17T21:48:25.719Z,7.60
2022-08-17T21:51:17.603Z,7.10
2022-08-17T21:53:51.855Z,7.80
2022-08-17T21:56:25.973Z,8.00
2022-08-17T21:59:02.815Z,7.90
2022-08-17T22:01:36.163Z,8.30
2022-08-17T22:04:27.167Z,6.90
2022-08-17T22:06:57.197Z,7.80
2022-08-17T22:09:34.210Z,7.60
2022-08-17T22:12:09.122Z,7.40
2022-08-17T22:14:51.646Z,7.40
2022-08-17T22:17:30.058Z,7.60
2022-08-17T22:20:02.331Z,7.40
2022-08-17T22:22:55.836Z,7.40
2022-08-17T22:25:25.819Z,7.30
2022-08-17T22:28:00.224Z,7.30
2022-08-17T22:30:39.122Z,7.50
2022-08-17T22:33:37.783Z,7.40
2022-08-17T22:36:52.943Z,6.80
2022-08-17T22:43:26.004Z,7.00
2022-08-17T22:46:34.794Z,8.30
2022-08-17T22:49:55.301Z,8.10
2022-08-17T22:53:07.826Z,7.90
2022-08-17T23:00:00.799Z,7.90
2022-08-17T23:03:33.728Z,7.40
2022-08-17T23:06:44.787Z,7.70
2022-08-17T23:10:01.018Z,7.70
2022-08-17T23:12:59.073Z,8.00
2022-08-17T23:16:07.307Z,7.20
2022-08-17T23:22:52.312Z,7.60
2022-08-17T23:26:33.562Z,7.20
2022-08-17T23:30:05.789Z,7.40
2022-08-17T23:32:53.740Z,7.40
2022-08-17T23:35:57.858Z,6.90
2022-08-17T23:39:27.653Z,7.60
2022-08-17T23:42:39.804Z,8.10
2022-08-17T23:46:10.285Z,7.80
2022-08-17T23:49:06.078Z,9.30
2022-08-17T23:52:16.915Z,8.30
2022-08-17T23:55:11.800Z,8.50
2022-08-17T23:58:18.735Z,8.60
